Time;durP1;ratioP1;P1;durP2;ratioP2;P2;SDS_P1;SDS_P2;PMS_P1;PMS_P2;Temp;Humidity;BMP_temperature;BMP_pressure;BME280_temperature;BME280_humidity;BME280_pressure;Samples;Min_cycle;Max_cycle;Signal;HPM_P1;HPM_P2
2023/08/28 00:00:02;;;;;;;1.90;1.80;;;14.50;99.90;;;;;;4868020;29;20467;-91
2023/08/28 00:02:29;;;;;;;1.70;1.60;;;14.50;99.90;;;;;;4867567;29;20851;-92
2023/08/28 00:04:57;;;;;;;2.00;1.83;;;14.50;99.90;;;;;;4867789;29;20922;-92
2023/08/28 00:07:24;;;;;;;2.20;2.00;;;14.40;99.90;;;;;;4868404;29;20464;-92
2023/08/28 00:09:53;;;;;;;1.70;1.60;;;14.40;99.90;;;;;;4867915;29;20467;-92
2023/08/28 00:12:20;;;;;;;1.67;1.17;;;14.40;99.90;;;;;;4868189;29;20471;-92
2023/08/28 00:14:47;;;;;;;13.37;2.10;;;14.40;99.90;;;;;;4868346;29;20557;-91
2023/08/28 00:17:17;;;;;;;2.10;1.90;;;14.40;99.90;;;;;;4868517;29;20564;-92
2023/08/28 00:19:45;;;;;;;1.60;1.40;;;14.40;99.90;;;;;;4868509;29;20471;-92
2023/08/28 00:22:14;;;;;;;2.23;1.80;;;14.40;99.90;;;;;;4868477;29;20473;-93
2023/08/28 00:24:41;;;;;;;2.30;2.10;;;14.40;99.90;;;;;;4868458;29;20522;-94
2023/08/28 00:27:08;;;;;;;2.03;1.80;;;14.30;99.90;;;;;;4869027;29;20489;-91
2023/08/28 00:29:35;;;;;;;1.70;1.60;;;14.30;99.90;;;;;;4869149;29;20474;-92
2023/08/28 00:32:03;;;;;;;2.13;1.97;;;14.30;99.90;;;;;;4868923;29;20480;-91
2023/08/28 00:34:32;;;;;;;1.73;1.50;;;14.30;99.90;;;;;;4870880;29;20549;-92
2023/08/28 00:36:59;;;;;;;1.97;1.87;;;14.30;99.90;;;;;;4870716;29;20468;-92
2023/08/28 00:39:27;;;;;;;2.00;1.60;;;14.30;99.90;;;;;;4869170;29;20961;-91
2023/08/28 00:41:55;;;;;;;3.50;2.10;;;14.30;99.90;;;;;;4869949;29;20464;-93
2023/08/28 00:44:22;;;;;;;1.70;1.50;;;14.30;99.90;;;;;;4870134;29;20985;-92
2023/08/28 00:46:49;;;;;;;2.87;1.63;;;14.20;99.90;;;;;;4869552;29;20494;-92
2023/08/28 00:49:17;;;;;;;2.50;1.77;;;14.30;99.90;;;;;;4872173;29;20510;-93
2023/08/28 00:51:46;;;;;;;2.97;1.97;;;14.30;99.90;;;;;;4873703;29;20477;-92
2023/08/28 00:54:14;;;;;;;3.37;1.80;;;14.30;99.90;;;;;;4870646;29;20471;-92
2023/08/28 00:56:43;;;;;;;1.80;1.70;;;14.30;99.90;;;;;;4871264;29;20505;-92
2023/08/28 00:59:10;;;;;;;2.00;1.80;;;14.20;99.90;;;;;;4875322;29;20506;-92
2023/08/28 01:01:38;;;;;;;3.00;1.60;;;14.20;99.90;;;;;;4873002;29;20573;-93
2023/08/28 01:04:05;;;;;;;4.33;2.10;;;14.20;99.90;;;;;;4871338;29;20499;-92
2023/08/28 01:06:42;;;;;;;1.83;1.70;;;14.20;99.90;;;;;;4873375;29;20490;-92
2023/08/28 01:09:19;;;;;;;2.90;1.60;;;14.20;99.90;;;;;;4870956;29;20474;-92
2023/08/28 01:11:52;;;;;;;1.40;1.30;;;14.20;99.90;;;;;;4869759;29;20572;-92
2023/08/28 01:14:25;;;;;;;2.57;1.90;;;14.10;99.90;;;;;;4869215;29;20474;-92
2023/08/28 01:16:55;;;;;;;1.90;1.80;;;14.10;99.90;;;;;;4868990;29;20496;-92
2023/08/28 01:19:30;;;;;;;2.13;1.80;;;14.10;99.90;;;;;;4869983;29;20517;-92
2023/08/28 01:22:07;;;;;;;1.70;1.60;;;14.10;99.90;;;;;;4872795;29;20475;-92
2023/08/28 01:24:37;;;;;;;1.73;1.63;;;14.00;99.90;;;;;;4873831;29;20485;-92
2023/08/28 01:27:06;;;;;;;2.00;1.80;;;14.10;99.90;;;;;;4874502;29;20556;-93
2023/08/28 01:29:34;;;;;;;1.50;1.40;;;14.10;99.90;;;;;;4871341;29;21040;-93
2023/08/28 01:32:04;;;;;;;1.97;1.67;;;14.10;99.90;;;;;;4869567;29;20513;-92
2023/08/28 01:34:32;;;;;;;1.60;1.50;;;14.10;99.90;;;;;;4869897;29;20469;-92
2023/08/28 01:37:29;;;;;;;2.20;1.57;;;14.00;99.90;;;;;;4868743;29;20463;-92
2023/08/28 01:40:05;;;;;;;1.60;1.50;;;14.00;99.90;;;;;;4869302;29;20514;-94
2023/08/28 01:42:36;;;;;;;1.70;1.50;;;14.00;99.90;;;;;;4870493;29;20959;-93
2023/08/28 01:45:06;;;;;;;1.60;1.50;;;14.00;99.90;;;;;;4870658;29;20497;-92
2023/08/28 01:47:34;;;;;;;2.13;1.67;;;14.00;99.90;;;;;;4869954;29;20475;-93
2023/08/28 01:50:05;;;;;;;1.60;1.50;;;14.00;99.90;;;;;;4869363;29;20502;-93
2023/08/28 01:52:32;;;;;;;1.43;1.33;;;13.90;99.90;;;;;;4869683;29;20463;-93
2023/08/28 01:55:00;;;;;;;1.47;1.37;;;13.90;99.90;;;;;;4869344;29;20560;-93
2023/08/28 01:57:27;;;;;;;1.60;1.50;;;13.80;99.90;;;;;;4868810;29;20461;-93
2023/08/28 01:59:59;;;;;;;3.03;1.80;;;13.80;99.90;;;;;;4869403;29;20522;-93
2023/08/28 02:02:30;;;;;;;2.10;1.63;;;13.90;99.90;;;;;;4867230;29;20475;-92
2023/08/28 02:05:00;;;;;;;1.40;1.30;;;13.90;99.90;;;;;;4865801;29;20493;-93
2023/08/28 02:07:30;;;;;;;1.43;1.33;;;13.90;99.90;;;;;;4869476;29;20476;-93
2023/08/28 02:09:59;;;;;;;2.13;1.90;;;13.90;99.90;;;;;;4870227;29;20458;-93
2023/08/28 02:12:29;;;;;;;1.73;1.63;;;13.90;99.90;;;;;;4869974;29;20485;-93
2023/08/28 02:15:08;;;;;;;1.50;1.40;;;13.90;99.90;;;;;;4870009;29;20588;-93
2023/08/28 02:17:37;;;;;;;1.43;1.30;;;13.90;99.90;;;;;;4875297;29;20466;-93
2023/08/28 02:20:14;;;;;;;2.10;2.00;;;13.90;99.90;;;;;;4870879;29;21002;-93
2023/08/28 02:22:42;;;;;;;1.60;1.50;;;13.90;99.90;;;;;;4870913;29;20605;-93
2023/08/28 02:25:13;;;;;;;2.03;1.83;;;13.90;99.90;;;;;;4870022;29;20489;-94
2023/08/28 02:27:46;;;;;;;2.00;1.83;;;13.90;99.90;;;;;;4870972;29;20964;-92
2023/08/28 02:30:19;;;;;;;1.50;1.40;;;13.90;99.90;;;;;;4870336;29;20567;-93
2023/08/28 02:32:48;;;;;;;1.87;1.70;;;13.90;99.90;;;;;;4870040;29;20475;-93
2023/08/28 02:35:16;;;;;;;1.37;1.27;;;13.90;99.90;;;;;;4868937;29;20479;-93
2023/08/28 02:37:45;;;;;;;1.73;1.63;;;13.80;99.90;;;;;;4872276;29;20465;-94
2023/08/28 02:40:13;;;;;;;1.40;1.30;;;13.80;99.90;;;;;;4871337;29;20471;-93
2023/08/28 02:42:51;;;;;;;1.73;1.63;;;13.80;99.90;;;;;;4869279;29;20474;-93
2023/08/28 02:45:27;;;;;;;1.70;1.50;;;13.80;99.90;;;;;;4867720;29;20514;-92
2023/08/28 02:47:57;;;;;;;1.63;1.53;;;13.80;99.90;;;;;;4868217;29;20472;-93
2023/08/28 02:50:26;;;;;;;2.03;1.60;;;13.80;99.90;;;;;;4868479;29;20479;-93
2023/08/28 02:52:55;;;;;;;2.57;1.70;;;13.80;99.90;;;;;;4868524;29;20464;-93
2023/08/28 02:55:38;;;;;;;1.60;1.50;;;13.70;99.90;;;;;;4867633;29;20550;-92
2023/08/28 02:58:06;;;;;;;1.63;1.47;;;13.70;99.90;;;;;;4867667;29;20466;-93
2023/08/28 03:00:44;;;;;;;3.70;1.60;;;13.70;99.90;;;;;;4867282;29;20880;-92
2023/08/28 03:03:14;;;;;;;2.20;1.60;;;13.70;99.90;;;;;;4867742;29;20472;-92
2023/08/28 03:05:54;;;;;;;1.93;1.70;;;13.70;99.90;;;;;;4867610;29;20520;-92
2023/08/28 03:08:26;;;;;;;7.17;1.97;;;13.70;99.90;;;;;;4867432;29;20523;-93
2023/08/28 03:13:36;;;;;;;1.60;1.37;;;13.70;99.90;;;;;;4868656;29;20461;-93
2023/08/28 03:16:06;;;;;;;1.60;1.50;;;13.60;99.90;;;;;;4868290;29;20495;-92
2023/08/28 03:18:37;;;;;;;1.60;1.50;;;13.60;99.90;;;;;;4866711;29;20814;-92
2023/08/28 03:21:05;;;;;;;3.00;1.90;;;13.70;99.90;;;;;;4868611;29;20495;-91
2023/08/28 03:23:33;;;;;;;1.97;1.60;;;13.70;99.90;;;;;;4871917;29;21165;-92
2023/08/28 03:26:00;;;;;;;1.93;1.70;;;13.70;99.90;;;;;;4867893;29;20509;-93
2023/08/28 03:28:26;;;;;;;1.50;1.40;;;13.70;99.90;;;;;;4871847;29;20467;-94
2023/08/28 03:30:58;;;;;;;2.00;1.63;;;13.70;99.90;;;;;;4872144;29;20481;-93
2023/08/28 03:33:27;;;;;;;2.93;2.00;;;13.70;99.90;;;;;;4859779;29;20477;-93
2023/08/28 03:35:55;;;;;;;2.37;1.90;;;13.70;99.90;;;;;;4864882;29;20513;-93
2023/08/28 03:38:22;;;;;;;1.93;1.70;;;13.70;99.90;;;;;;4867650;29;20523;-93
2023/08/28 03:40:49;;;;;;;1.40;1.23;;;13.70;99.90;;;;;;4865245;29;20472;-93
2023/08/28 03:43:16;;;;;;;2.00;1.80;;;13.70;99.90;;;;;;4855802;29;20494;-92
2023/08/28 03:45:46;;;;;;;2.30;1.73;;;13.70;99.90;;;;;;4866490;29;20487;-93
2023/08/28 03:48:14;;;;;;;2.03;1.60;;;13.70;99.90;;;;;;4870629;29;20514;-94
2023/08/28 03:51:04;;;;;;;2.10;1.63;;;13.70;99.90;;;;;;4879228;29;20466;-94
2023/08/28 03:56:49;;;;;;;5.93;1.73;;;13.70;99.90;;;;;;4958350;23;21000;-68
2023/08/28 03:59:16;;;;;;;2.07;1.60;;;13.70;99.90;;;;;;4869775;29;20488;-67
2023/08/28 04:01:43;;;;;;;1.53;1.43;;;13.70;99.90;;;;;;4867257;29;20462;-67
2023/08/28 04:04:09;;;;;;;2.20;1.80;;;13.70;99.90;;;;;;4874758;29;20926;-67
2023/08/28 04:06:37;;;;;;;1.50;1.40;;;13.70;99.90;;;;;;4871095;29;20462;-68
2023/08/28 04:09:05;;;;;;;2.20;2.00;;;13.70;99.90;;;;;;4868036;29;20491;-68
2023/08/28 04:11:32;;;;;;;1.90;1.80;;;13.70;99.90;;;;;;4872505;29;20529;-68
2023/08/28 04:13:59;;;;;;;2.00;1.50;;;13.70;99.90;;;;;;4861855;29;20465;-67
2023/08/28 04:16:26;;;;;;;1.73;1.33;;;13.70;99.90;;;;;;4877602;29;20475;-68
2023/08/28 04:18:52;;;;;;;1.73;1.63;;;13.70;99.90;;;;;;4866945;29;20518;-68
2023/08/28 04:21:18;;;;;;;1.70;1.60;;;13.70;99.90;;;;;;4865731;29;20965;-68
2023/08/28 04:23:46;;;;;;;2.00;1.80;;;13.60;99.90;;;;;;4867132;29;20482;-68
2023/08/28 04:26:13;;;;;;;1.90;1.40;;;13.70;99.90;;;;;;4863956;29;20530;-68
2023/08/28 04:28:40;;;;;;;2.37;1.50;;;13.60;99.90;;;;;;4857922;29;20485;-67
2023/08/28 04:31:09;;;;;;;1.30;1.20;;;13.60;99.90;;;;;;4857101;29;20466;-68
2023/08/28 04:33:37;;;;;;;1.83;1.60;;;13.70;99.90;;;;;;4854715;29;20463;-67
2023/08/28 04:36:04;;;;;;;1.60;1.50;;;13.70;99.90;;;;;;4855507;29;20788;-68
2023/08/28 04:38:31;;;;;;;2.40;1.73;;;13.60;99.90;;;;;;4855448;29;20208;-67
2023/08/28 04:40:59;;;;;;;1.80;1.50;;;13.60;99.90;;;;;;4855450;29;20883;-68
2023/08/28 04:43:25;;;;;;;1.83;1.73;;;13.60;99.90;;;;;;4856039;29;20465;-67
2023/08/28 04:45:53;;;;;;;1.83;1.73;;;13.60;99.90;;;;;;4855656;29;20490;-68
2023/08/28 04:48:20;;;;;;;2.13;1.93;;;13.70;99.90;;;;;;4858505;29;20470;-67
2023/08/28 04:50:47;;;;;;;1.63;1.53;;;13.60;99.90;;;;;;4857784;29;20477;-67
2023/08/28 04:53:13;;;;;;;1.80;1.70;;;13.60;99.90;;;;;;4858314;29;20469;-68
2023/08/28 04:55:40;;;;;;;2.10;1.87;;;13.70;99.90;;;;;;4858092;29;20465;-68
2023/08/28 04:58:08;;;;;;;1.70;1.60;;;13.70;99.90;;;;;;4858086;29;20480;-68
2023/08/28 05:00:35;;;;;;;2.03;1.83;;;13.70;99.90;;;;;;4858164;29;20496;-67
2023/08/28 05:03:01;;;;;;;3.03;1.80;;;13.70;99.90;;;;;;4857704;29;20467;-67
2023/08/28 05:05:28;;;;;;;2.07;1.70;;;13.60;99.90;;;;;;4857968;29;20485;-67
2023/08/28 05:07:55;;;;;;;1.77;1.67;;;13.60;99.90;;;;;;4866485;29;20952;-70
2023/08/28 05:10:22;;;;;;;2.00;1.80;;;13.70;99.90;;;;;;4876572;29;20485;-67
2023/08/28 05:12:48;;;;;;;3.87;2.10;;;13.70;99.90;;;;;;4875796;29;20902;-65
2023/08/28 05:15:16;;;;;;;1.70;1.60;;;13.60;99.90;;;;;;4876219;29;20464;-67
2023/08/28 05:17:43;;;;;;;1.93;1.73;;;13.70;99.90;;;;;;4875957;29;20461;-67
2023/08/28 05:20:11;;;;;;;1.80;1.70;;;13.60;99.90;;;;;;4876129;29;20483;-67
2023/08/28 05:22:38;;;;;;;2.07;1.70;;;13.70;99.90;;;;;;4876149;29;20456;-67
2023/08/28 05:25:06;;;;;;;2.00;1.90;;;13.70;99.90;;;;;;4875696;29;20494;-67
2023/08/28 05:27:32;;;;;;;2.07;1.87;;;13.70;99.90;;;;;;4876054;29;20951;-67
2023/08/28 05:30:00;;;;;;;2.57;1.77;;;13.70;99.90;;;;;;4876211;29;20496;-67
2023/08/28 05:32:28;;;;;;;2.00;1.80;;;13.70;99.90;;;;;;4875786;29;20477;-67
2023/08/28 05:34:58;;;;;;;2.40;1.87;;;13.60;99.90;;;;;;4875901;29;20471;-67
2023/08/28 05:37:24;;;;;;;2.43;1.90;;;13.70;99.90;;;;;;4876057;29;20472;-67
2023/08/28 05:39:51;;;;;;;1.73;1.57;;;13.70;99.90;;;;;;4875748;29;20480;-66
2023/08/28 05:42:18;;;;;;;2.47;2.27;;;13.70;99.90;;;;;;4879131;29;20468;-67
2023/08/28 05:44:45;;;;;;;2.07;1.87;;;13.70;99.90;;;;;;4879291;29;21054;-67
2023/08/28 05:47:12;;;;;;;2.07;1.90;;;13.70;99.90;;;;;;4879502;29;20970;-67
2023/08/28 05:49:40;;;;;;;2.70;2.37;;;13.70;99.90;;;;;;4879302;29;20504;-67
2023/08/28 05:52:06;;;;;;;3.83;1.90;;;13.70;99.90;;;;;;4879180;29;20991;-67
2023/08/28 05:54:33;;;;;;;2.70;2.50;;;13.80;99.90;;;;;;4879400;29;20460;-67
2023/08/28 05:57:00;;;;;;;1.53;1.43;;;13.80;99.90;;;;;;4879409;29;20476;-67
2023/08/28 05:59:26;;;;;;;3.13;1.93;;;13.80;99.90;;;;;;4879237;29;20489;-66
2023/08/28 06:01:53;;;;;;;4.23;2.40;;;13.80;99.90;;;;;;4878907;29;20476;-66
2023/08/28 06:04:20;;;;;;;2.30;2.00;;;13.80;99.90;;;;;;4879317;29;20460;-67
2023/08/28 06:06:48;;;;;;;4.23;2.47;;;13.80;99.90;;;;;;4879398;29;20736;-67
2023/08/28 06:09:14;;;;;;;2.37;1.90;;;13.80;99.90;;;;;;4879127;29;21078;-68
2023/08/28 06:11:42;;;;;;;2.57;2.37;;;13.80;99.90;;;;;;4872911;29;20477;-66
2023/08/28 06:14:09;;;;;;;3.40;2.47;;;13.80;99.90;;;;;;4862592;29;20466;-67
2023/08/28 06:16:36;;;;;;;2.47;2.27;;;13.90;99.90;;;;;;4879025;29;20489;-67
2023/08/28 06:19:03;;;;;;;3.90;2.40;;;13.90;99.90;;;;;;4879045;29;20497;-67
2023/08/28 06:21:31;;;;;;;2.60;2.40;;;13.90;99.90;;;;;;4879087;29;20512;-67
2023/08/28 06:23:59;;;;;;;2.93;2.63;;;13.90;99.90;;;;;;4879197;29;20548;-67
2023/08/28 06:26:25;;;;;;;2.97;2.67;;;13.90;99.90;;;;;;4878929;29;20483;-67
2023/08/28 06:28:52;;;;;;;3.87;2.70;;;13.90;99.90;;;;;;4878714;29;20485;-67
2023/08/28 06:31:19;;;;;;;4.00;3.20;;;14.00;99.90;;;;;;4878472;29;20476;-67
2023/08/28 06:33:46;;;;;;;3.20;2.90;;;14.00;99.90;;;;;;4878696;29;20473;-67
2023/08/28 06:36:13;;;;;;;3.90;2.97;;;14.00;99.90;;;;;;4878979;29;20468;-67
2023/08/28 06:38:40;;;;;;;3.47;3.17;;;14.00;99.90;;;;;;4878577;29;20493;-67
2023/08/28 06:41:08;;;;;;;3.07;2.70;;;14.00;99.90;;;;;;4878486;29;20854;-66
2023/08/28 06:43:35;;;;;;;2.83;2.57;;;14.00;99.90;;;;;;4873831;29;20462;-66
2023/08/28 06:46:01;;;;;;;3.83;3.40;;;14.10;99.90;;;;;;4860036;29;20486;-67
2023/08/28 06:48:28;;;;;;;3.17;2.87;;;14.10;99.90;;;;;;4859908;29;20469;-67
2023/08/28 06:50:57;;;;;;;3.60;3.30;;;14.10;99.90;;;;;;4859744;29;20479;-67
2023/08/28 06:53:24;;;;;;;3.10;2.80;;;14.10;99.90;;;;;;4851452;29;20908;-67
2023/08/28 06:55:52;;;;;;;5.53;3.10;;;14.10;99.90;;;;;;4860353;29;20462;-67
2023/08/28 06:58:20;;;;;;;3.93;2.90;;;14.20;99.90;;;;;;4859654;29;20474;-66
2023/08/28 07:00:47;;;;;;;4.73;3.43;;;14.20;99.90;;;;;;4859459;29;20475;-66
2023/08/28 07:03:13;;;;;;;4.43;3.87;;;14.20;99.90;;;;;;4859758;29;20495;-66
2023/08/28 07:05:40;;;;;;;4.90;4.30;;;14.20;99.90;;;;;;4859742;29;20502;-66
2023/08/28 07:08:07;;;;;;;4.40;3.33;;;14.20;99.90;;;;;;4859488;29;20471;-66
2023/08/28 07:10:34;;;;;;;5.67;4.30;;;14.20;99.90;;;;;;4859544;29;20493;-66
2023/08/28 07:13:00;;;;;;;4.13;3.67;;;14.20;99.90;;;;;;4859336;29;20461;-66
2023/08/28 07:15:57;;;;;;;7.00;3.73;;;14.20;99.90;;;;;;4859758;29;20477;-67
2023/08/28 07:18:25;;;;;;;4.80;3.27;;;14.20;99.90;;;;;;4859351;29;20815;-67
2023/08/28 07:20:52;;;;;;;4.03;3.07;;;14.20;99.90;;;;;;4859401;29;20478;-66
2023/08/28 07:23:19;;;;;;;3.57;3.27;;;14.20;99.90;;;;;;4859433;29;20462;-66
2023/08/28 07:25:45;;;;;;;5.13;3.50;;;14.20;99.90;;;;;;4864689;29;20504;-66
2023/08/28 07:28:12;;;;;;;3.80;3.33;;;14.20;99.90;;;;;;4866954;29;20476;-66
2023/08/28 07:30:40;;;;;;;3.43;3.07;;;14.20;99.90;;;;;;4857171;29;20671;-68
2023/08/28 07:33:07;;;;;;;4.37;3.97;;;14.20;99.90;;;;;;4858885;29;20479;-68
2023/08/28 07:35:36;;;;;;;3.83;3.40;;;14.20;99.90;;;;;;4858994;29;20471;-67
2023/08/28 07:38:04;;;;;;;3.30;3.00;;;14.20;99.90;;;;;;4859153;29;20470;-68
2023/08/28 07:40:31;;;;;;;3.20;2.90;;;14.20;99.90;;;;;;4859524;29;20493;-67
2023/08/28 07:42:58;;;;;;;5.50;2.87;;;14.20;99.90;;;;;;4858847;29;20467;-67
2023/08/28 07:45:25;;;;;;;3.60;3.30;;;14.30;99.90;;;;;;4861792;29;20513;-67
2023/08/28 07:47:52;;;;;;;3.60;3.30;;;14.30;99.90;;;;;;4877804;29;20461;-68
2023/08/28 07:50:19;;;;;;;3.60;3.10;;;14.40;99.90;;;;;;4877512;29;21000;-67
2023/08/28 07:52:47;;;;;;;3.90;2.90;;;14.50;99.90;;;;;;4877282;29;20470;-67
2023/08/28 07:55:13;;;;;;;3.53;3.20;;;14.60;99.90;;;;;;4877508;29;20465;-67
2023/08/28 07:57:40;;;;;;;3.57;3.10;;;14.60;99.90;;;;;;4877311;29;20461;-67
2023/08/28 08:00:12;;;;;;;3.03;2.73;;;14.70;99.90;;;;;;4877082;29;20515;-67
2023/08/28 08:02:39;;;;;;;3.30;3.00;;;14.70;99.90;;;;;;4877129;29;20466;-67
2023/08/28 08:05:07;;;;;;;3.90;2.73;;;14.80;99.90;;;;;;4876867;29;20683;-67
2023/08/28 08:07:34;;;;;;;3.23;2.80;;;14.80;99.90;;;;;;4865810;29;20463;-67
2023/08/28 08:10:02;;;;;;;5.17;3.13;;;14.80;99.90;;;;;;4859035;29;20966;-67
2023/08/28 08:12:29;;;;;;;3.50;3.20;;;14.80;99.90;;;;;;4858402;29;20474;-67
2023/08/28 08:14:56;;;;;;;3.90;2.90;;;14.80;99.90;;;;;;4865045;29;20496;-67
2023/08/28 08:17:22;;;;;;;4.40;2.97;;;14.90;99.90;;;;;;4877068;29;20838;-67
2023/08/28 08:19:49;;;;;;;2.90;2.60;;;14.90;99.90;;;;;;4876846;29;20489;-67
2023/08/28 08:22:16;;;;;;;3.17;2.97;;;14.90;99.90;;;;;;4876726;29;20864;-67
2023/08/28 08:24:43;;;;;;;2.90;2.70;;;15.00;99.90;;;;;;4876849;29;20983;-67
2023/08/28 08:27:11;;;;;;;3.60;2.80;;;15.00;99.90;;;;;;4877008;29;20493;-67
2023/08/28 08:29:37;;;;;;;2.93;2.63;;;15.10;99.90;;;;;;4876412;29;20484;-67
2023/08/28 08:32:05;;;;;;;3.10;2.70;;;15.00;99.90;;;;;;4876822;29;20486;-67
2023/08/28 08:34:32;;;;;;;3.20;2.90;;;15.00;99.90;;;;;;4876556;29;20459;-67
2023/08/28 08:36:59;;;;;;;3.50;2.93;;;15.00;99.90;;;;;;4876990;29;20463;-67
2023/08/28 08:39:25;;;;;;;2.50;2.30;;;15.00;99.90;;;;;;4876278;29;20486;-67
2023/08/28 08:41:52;;;;;;;3.17;2.87;;;15.00;99.90;;;;;;4870032;29;20501;-67
2023/08/28 08:44:20;;;;;;;2.73;2.53;;;14.90;99.90;;;;;;4857937;29;20479;-67
2023/08/28 08:46:49;;;;;;;3.20;2.90;;;14.90;99.90;;;;;;4858028;29;20494;-67
2023/08/28 08:49:19;;;;;;;2.90;2.70;;;14.90;99.90;;;;;;4857827;29;20493;-67
2023/08/28 08:51:49;;;;;;;2.70;2.50;;;14.90;99.90;;;;;;4857700;29;20833;-67
2023/08/28 08:54:20;;;;;;;3.17;2.90;;;15.00;99.90;;;;;;4857833;29;20467;-67
2023/08/28 08:56:49;;;;;;;3.00;2.70;;;15.00;99.90;;;;;;4857717;29;20896;-67
2023/08/28 08:59:16;;;;;;;2.70;2.50;;;15.00;99.90;;;;;;4857606;29;20494;-67
2023/08/28 09:01:45;;;;;;;2.20;2.00;;;14.90;99.90;;;;;;4861683;29;20843;-67
2023/08/28 09:04:12;;;;;;;4.20;2.50;;;14.90;99.90;;;;;;4876143;29;20966;-67
2023/08/28 09:06:41;;;;;;;3.20;2.87;;;15.00;99.90;;;;;;4875905;29;20550;-67
2023/08/28 09:09:11;;;;;;;2.40;2.20;;;15.00;99.90;;;;;;4876114;29;20489;-67
2023/08/28 09:11:40;;;;;;;2.87;2.43;;;15.00;99.90;;;;;;4857506;29;20472;-67
2023/08/28 09:14:07;;;;;;;2.33;2.13;;;15.00;99.90;;;;;;4857808;29;20475;-67
2023/08/28 09:16:34;;;;;;;2.40;2.20;;;15.00;99.90;;;;;;4856768;29;20472;-67
2023/08/28 09:19:02;;;;;;;2.83;2.50;;;15.00;99.90;;;;;;4857493;29;20491;-67
2023/08/28 09:21:35;;;;;;;3.20;2.50;;;15.00;99.90;;;;;;4857265;29;20976;-67
2023/08/28 09:24:02;;;;;;;1.77;1.67;;;15.00;99.90;;;;;;4857858;29;20466;-66
2023/08/28 09:26:28;;;;;;;2.20;2.00;;;15.00;99.90;;;;;;4857240;29;20512;-67
2023/08/28 09:28:59;;;;;;;2.20;2.00;;;15.00;99.90;;;;;;4857321;29;21000;-67
2023/08/28 09:31:29;;;;;;;2.77;2.10;;;15.00;99.90;;;;;;4857058;29;20496;-67
2023/08/28 09:33:56;;;;;;;2.37;2.17;;;15.00;99.90;;;;;;4853135;29;20469;-67
2023/08/28 09:36:25;;;;;;;4.03;2.10;;;15.00;99.90;;;;;;4860897;29;20471;-67
2023/08/28 09:38:51;;;;;;;2.90;2.00;;;15.00;99.90;;;;;;4875055;29;20492;-67
2023/08/28 09:41:18;;;;;;;2.73;2.27;;;15.10;99.90;;;;;;4860952;29;20464;-67
2023/08/28 09:43:45;;;;;;;2.30;2.10;;;15.10;99.90;;;;;;4856901;29;20478;-67
2023/08/28 09:46:12;;;;;;;1.83;1.50;;;15.10;99.90;;;;;;4857538;29;21024;-67
2023/08/28 09:48:40;;;;;;;1.87;1.77;;;15.10;99.90;;;;;;4856624;29;20480;-67
2023/08/28 09:51:08;;;;;;;1.83;1.73;;;15.10;99.90;;;;;;4854672;29;20836;-67
2023/08/28 09:53:37;;;;;;;1.97;1.73;;;15.20;99.90;;;;;;4858828;29;20467;-67
2023/08/28 09:56:04;;;;;;;2.50;1.93;;;15.20;99.90;;;;;;4875509;29;20500;-67
2023/08/28 09:58:31;;;;;;;1.97;1.50;;;15.30;99.90;;;;;;4875451;29;20469;-67
2023/08/28 10:00:58;;;;;;;1.60;1.40;;;15.40;99.90;;;;;;4875624;29;20845;-67
2023/08/28 10:03:26;;;;;;;2.80;1.53;;;15.50;99.90;;;;;;4863766;29;20471;-67
2023/08/28 10:05:53;;;;;;;2.13;1.73;;;15.60;99.90;;;;;;4856531;29;20496;-67
2023/08/28 10:08:21;;;;;;;4.37;2.17;;;15.70;99.90;;;;;;4856555;29;20468;-67
2023/08/28 10:10:51;;;;;;;1.80;1.70;;;15.90;99.90;;;;;;4856676;29;20476;-67
2023/08/28 10:13:21;;;;;;;4.00;1.80;;;16.00;99.90;;;;;;4873204;29;20463;-67
2023/08/28 10:15:54;;;;;;;2.30;2.10;;;16.10;99.90;;;;;;4875755;29;20494;-67
2023/08/28 10:18:26;;;;;;;2.10;1.90;;;16.10;99.90;;;;;;4874935;29;20477;-67
2023/08/28 10:20:54;;;;;;;2.17;1.97;;;16.20;99.90;;;;;;4856662;29;20953;-67
2023/08/28 10:23:22;;;;;;;1.90;1.80;;;16.40;99.90;;;;;;4857329;29;20851;-67
2023/08/28 10:25:52;;;;;;;3.57;2.13;;;16.40;99.90;;;;;;4875227;29;20474;-67
2023/08/28 10:28:20;;;;;;;1.53;1.43;;;16.50;99.90;;;;;;4878564;29;20869;-67
2023/08/28 10:30:49;;;;;;;2.00;1.73;;;16.50;99.90;;;;;;4878640;29;20559;-67
2023/08/28 10:33:16;;;;;;;2.70;2.50;;;16.50;99.90;;;;;;4870969;29;20464;-67
2023/08/28 10:35:46;;;;;;;1.93;1.80;;;16.50;99.90;;;;;;4859969;29;20889;-67
2023/08/28 10:38:14;;;;;;;2.67;1.93;;;16.60;99.90;;;;;;4860223;29;20829;-67
2023/08/28 10:40:41;;;;;;;2.80;1.77;;;16.60;99.90;;;;;;4862641;29;20560;-67
2023/08/28 10:43:09;;;;;;;2.57;1.80;;;16.60;99.90;;;;;;4878597;29;20460;-66
2023/08/28 10:45:39;;;;;;;1.97;1.83;;;16.70;99.90;;;;;;4878103;29;20464;-67
2023/08/28 10:48:07;;;;;;;2.00;1.80;;;16.80;99.90;;;;;;4878577;29;20490;-67
2023/08/28 10:50:37;;;;;;;1.90;1.73;;;16.80;99.90;;;;;;4878447;29;20479;-67
2023/08/28 10:53:04;;;;;;;2.03;1.87;;;16.90;99.90;;;;;;4878433;29;20515;-67
2023/08/28 10:55:31;;;;;;;2.33;1.70;;;17.10;99.90;;;;;;4877956;29;20971;-67
2023/08/28 10:58:02;;;;;;;2.57;1.70;;;17.20;99.90;;;;;;4877965;29;20456;-67
2023/08/28 11:00:34;;;;;;;2.20;2.00;;;17.30;99.90;;;;;;4878405;29;20487;-67
2023/08/28 11:03:09;;;;;;;2.30;1.67;;;17.40;99.90;;;;;;4877973;29;20833;-67
2023/08/28 11:05:38;;;;;;;2.60;1.87;;;17.40;99.90;;;;;;4878271;29;20469;-67
2023/08/28 11:08:06;;;;;;;2.10;1.60;;;17.30;99.90;;;;;;4877667;29;20491;-67
2023/08/28 11:10:35;;;;;;;2.57;1.50;;;17.10;99.90;;;;;;4877571;29;20912;-67
2023/08/28 11:13:05;;;;;;;1.90;1.70;;;17.00;99.90;;;;;;4877370;29;20960;-67
2023/08/28 11:15:34;;;;;;;2.10;1.73;;;16.80;99.90;;;;;;4910561;23;20540;-94
2023/08/28 11:18:27;;;;;;;2.77;1.60;;;16.70;99.90;;;;;;4911236;29;20478;-93
2023/08/28 11:20:54;;;;;;;2.07;1.60;;;16.60;99.90;;;;;;4910840;29;20497;-93
2023/08/28 11:23:26;;;;;;;1.70;1.57;;;16.50;99.90;;;;;;4918572;29;20467;-95
2023/08/28 11:25:53;;;;;;;2.23;1.60;;;16.60;99.90;;;;;;4919471;29;20505;-93
2023/08/28 11:28:29;;;;;;;2.10;1.40;;;16.50;99.90;;;;;;4926952;29;20481;-95
2023/08/28 11:31:02;;;;;;;1.60;1.50;;;16.50;99.90;;;;;;4914138;29;20467;-94
2023/08/28 11:33:37;;;;;;;1.63;1.30;;;16.50;99.90;;;;;;4916638;29;20536;-94
2023/08/28 11:36:04;;;;;;;1.70;1.60;;;16.50;99.90;;;;;;4920467;29;20488;-94
2023/08/28 11:38:31;;;;;;;1.67;1.53;;;16.60;99.90;;;;;;4920061;29;20466;-94
2023/08/28 11:41:00;;;;;;;1.60;1.40;;;16.60;99.90;;;;;;4914463;29;20463;-94
2023/08/28 11:43:29;;;;;;;2.30;1.80;;;16.50;99.90;;;;;;4918536;28;20483;-95
2023/08/28 11:48:48;;;;;;;2.23;1.80;;;16.50;99.90;;;;;;4907851;23;20506;-66
2023/08/28 11:51:15;;;;;;;3.37;1.50;;;16.40;99.90;;;;;;4894904;29;20825;-66
2023/08/28 11:53:45;;;;;;;1.93;1.70;;;16.40;99.90;;;;;;4895080;29;20477;-66
2023/08/28 11:56:13;;;;;;;2.37;1.43;;;16.30;99.90;;;;;;4895460;29;20451;-66
2023/08/28 11:58:42;;;;;;;1.80;1.53;;;16.30;99.90;;;;;;4888271;29;21017;-69
2023/08/28 12:01:12;;;;;;;1.63;1.43;;;16.40;99.90;;;;;;4889030;29;20470;-69
2023/08/28 12:03:41;;;;;;;1.93;1.83;;;16.40;99.90;;;;;;4895569;29;21040;-68
2023/08/28 12:06:12;;;;;;;2.47;1.70;;;16.40;99.90;;;;;;4887107;29;20477;-69
2023/08/28 12:08:40;;;;;;;1.70;1.60;;;16.30;99.90;;;;;;4895837;29;20485;-69
2023/08/28 12:11:08;;;;;;;1.63;1.30;;;16.30;99.90;;;;;;4895774;29;20466;-69
2023/08/28 12:13:36;;;;;;;1.67;1.50;;;16.20;99.90;;;;;;4895332;29;20820;-69
2023/08/28 12:16:08;;;;;;;1.53;1.43;;;16.20;99.90;;;;;;4895822;29;20536;-69
2023/08/28 12:18:47;;;;;;;1.40;1.20;;;16.30;99.90;;;;;;4895613;29;20549;-68
2023/08/28 12:21:16;;;;;;;1.87;1.30;;;16.30;99.90;;;;;;4895555;29;20475;-68
2023/08/28 12:23:47;;;;;;;2.03;1.43;;;16.30;99.90;;;;;;4895587;29;20493;-68
2023/08/28 12:26:16;;;;;;;1.50;1.40;;;16.30;99.90;;;;;;4895308;29;20484;-68
2023/08/28 12:28:44;;;;;;;1.47;1.37;;;16.20;99.90;;;;;;4894884;29;20578;-69
2023/08/28 12:31:12;;;;;;;1.67;1.20;;;16.20;99.90;;;;;;4895292;29;20467;-69
2023/08/28 12:33:44;;;;;;;1.43;1.30;;;16.20;99.90;;;;;;4895316;29;20471;-69
2023/08/28 12:36:13;;;;;;;2.00;1.70;;;16.30;99.90;;;;;;4892786;29;20477;-68
2023/08/28 12:38:48;;;;;;;1.80;1.33;;;16.30;99.90;;;;;;4892130;29;20475;-66
2023/08/28 12:41:15;;;;;;;1.40;1.20;;;16.30;99.90;;;;;;4892166;29;20458;-66
2023/08/28 12:43:42;;;;;;;1.60;1.50;;;16.30;99.90;;;;;;4892590;29;20468;-66
2023/08/28 12:46:10;;;;;;;2.70;1.33;;;16.30;99.90;;;;;;4893016;29;20840;-66
2023/08/28 12:48:37;;;;;;;2.83;1.93;;;16.30;99.90;;;;;;4891846;29;20990;-66
2023/08/28 12:51:05;;;;;;;1.80;1.50;;;16.30;99.90;;;;;;4891397;29;20463;-66
2023/08/28 12:53:33;;;;;;;2.07;1.57;;;16.30;99.90;;;;;;4892155;29;20466;-67
2023/08/28 12:56:01;;;;;;;1.70;1.40;;;16.30;99.90;;;;;;4877591;29;20474;-66
2023/08/28 12:58:28;;;;;;;1.20;1.03;;;16.30;99.90;;;;;;4892212;29;20462;-66
2023/08/28 13:00:55;;;;;;;3.20;1.40;;;16.30;99.90;;;;;;4891938;29;20477;-66
2023/08/28 13:03:22;;;;;;;1.30;1.20;;;16.30;99.90;;;;;;4891819;29;20500;-66